Time;durP1;ratioP1;P1;durP2;ratioP2;P2;SDS_P1;SDS_P2;PMS_P1;PMS_P2;Temp;Humidity;BMP_temperature;BMP_pressure;BME280_temperature;BME280_humidity;BME280_pressure;Samples;Min_cycle;Max_cycle;Signal;HPM_P1;HPM_P2
2023/06/17 00:00:37;;;;;;;11.05;8.73;;;;;;;;;;4993472;28;20484;-66
2023/06/17 00:03:03;;;;;;;10.35;8.88;;;;;;;;;;4993517;28;20491;-66
2023/06/17 00:05:30;;;;;;;10.95;8.90;;;;;;;;;;4993502;28;20029;-66
2023/06/17 00:07:56;;;;;;;11.02;9.07;;;;;;;;;;4993451;28;20041;-66
2023/06/17 00:10:22;;;;;;;9.73;8.73;;;;;;;;;;4993365;28;20030;-66
2023/06/17 00:12:49;;;;;;;11.90;8.48;;;;;;;;;;4993301;28;20507;-66
2023/06/17 00:15:16;;;;;;;11.85;8.45;;;;;;;;;;4993359;28;20044;-66
2023/06/17 00:17:46;;;;;;;11.57;9.55;;;;;;;;;;4993184;28;20518;-66
2023/06/17 00:20:13;;;;;;;14.65;8.88;;;;;;;;;;4993312;28;20053;-66
2023/06/17 00:22:40;;;;;;;10.07;9.00;;;;;;;;;;4993028;28;20064;-66
2023/06/17 00:25:07;;;;;;;12.85;9.50;;;;;;;;;;4992912;28;20034;-66
2023/06/17 00:27:33;;;;;;;10.77;9.07;;;;;;;;;;4993102;28;20026;-66
2023/06/17 00:30:00;;;;;;;11.98;9.07;;;;;;;;;;4991993;28;20030;-66
2023/06/17 00:32:30;;;;;;;10.73;9.13;;;;;;;;;;4993309;28;20032;-66
2023/06/17 00:34:57;;;;;;;13.18;8.75;;;;;;;;;;4993391;28;20039;-66
2023/06/17 00:37:23;;;;;;;11.75;9.35;;;;;;;;;;4992757;28;20033;-66
2023/06/17 00:39:50;;;;;;;10.75;8.27;;;;;;;;;;4992978;28;20506;-66
2023/06/17 00:42:16;;;;;;;10.95;9.23;;;;;;;;;;4992876;28;20042;-66
2023/06/17 00:44:42;;;;;;;11.98;9.57;;;;;;;;;;4992726;28;20028;-66
2023/06/17 00:47:10;;;;;;;10.50;9.30;;;;;;;;;;4993253;28;20028;-66
2023/06/17 00:49:37;;;;;;;10.00;8.90;;;;;;;;;;4992932;28;20073;-66
2023/06/17 00:52:07;;;;;;;11.27;9.23;;;;;;;;;;4992336;28;20410;-66
2023/06/17 00:54:34;;;;;;;11.95;9.18;;;;;;;;;;4992547;28;20026;-65
2023/06/17 00:57:01;;;;;;;11.38;8.90;;;;;;;;;;4992904;28;20037;-66
2023/06/17 00:59:30;;;;;;;11.60;9.00;;;;;;;;;;4994741;28;20490;-66
2023/06/17 01:01:57;;;;;;;13.52;10.10;;;;;;;;;;4995185;28;20069;-66
2023/06/17 01:04:23;;;;;;;13.70;10.02;;;;;;;;;;4996872;28;20076;-66
2023/06/17 01:06:55;;;;;;;10.90;9.32;;;;;;;;;;4996613;28;20048;-66
2023/06/17 01:09:28;;;;;;;14.38;9.40;;;;;;;;;;4996596;28;20028;-66
2023/06/17 01:11:58;;;;;;;10.27;9.27;;;;;;;;;;4996471;28;20029;-66
2023/06/17 01:14:25;;;;;;;14.20;8.97;;;;;;;;;;4996466;28;20026;-66
2023/06/17 01:16:54;;;;;;;13.20;9.35;;;;;;;;;;4996354;28;20034;-66
2023/06/17 01:19:22;;;;;;;13.48;9.15;;;;;;;;;;4996505;28;20030;-66
2023/06/17 01:21:48;;;;;;;12.43;10.13;;;;;;;;;;4996088;28;20037;-66
2023/06/17 01:24:29;;;;;;;12.40;9.32;;;;;;;;;;4996119;28;20085;-66
2023/06/17 01:26:57;;;;;;;12.32;9.88;;;;;;;;;;4996566;28;20045;-66
2023/06/17 01:29:29;;;;;;;11.32;8.80;;;;;;;;;;4996049;28;20506;-66
2023/06/17 01:31:59;;;;;;;13.02;9.82;;;;;;;;;;4996175;28;20038;-66
2023/06/17 01:34:35;;;;;;;10.52;9.52;;;;;;;;;;4996006;28;20493;-66
2023/06/17 01:37:03;;;;;;;10.95;9.73;;;;;;;;;;4995844;28;20037;-65
2023/06/17 01:39:31;;;;;;;11.10;9.63;;;;;;;;;;4996097;28;20398;-66
2023/06/17 01:41:58;;;;;;;13.18;9.93;;;;;;;;;;4996139;28;20037;-66
2023/06/17 01:44:25;;;;;;;11.38;10.02;;;;;;;;;;4996028;28;20023;-66
2023/06/17 01:46:51;;;;;;;11.05;9.65;;;;;;;;;;4995904;28;20032;-66
2023/06/17 01:49:17;;;;;;;12.63;9.88;;;;;;;;;;4995845;28;20491;-66
2023/06/17 01:51:44;;;;;;;12.40;9.60;;;;;;;;;;4995469;28;20112;-65
2023/06/17 01:54:10;;;;;;;13.63;9.77;;;;;;;;;;4995745;28;20031;-66
2023/06/17 01:56:36;;;;;;;11.85;9.38;;;;;;;;;;4995899;28;20080;-65
2023/06/17 01:59:03;;;;;;;12.63;10.02;;;;;;;;;;4995807;28;20018;-66
2023/06/17 02:01:29;;;;;;;10.55;9.43;;;;;;;;;;4995527;28;20039;-65
2023/06/17 02:03:55;;;;;;;14.00;10.23;;;;;;;;;;4995947;28;20031;-66
2023/06/17 02:06:22;;;;;;;13.30;9.98;;;;;;;;;;4995361;28;20027;-66
2023/06/17 02:08:48;;;;;;;11.70;9.45;;;;;;;;;;4995672;28;20102;-66
2023/06/17 02:11:15;;;;;;;14.23;9.65;;;;;;;;;;4994194;28;20018;-66
2023/06/17 02:13:41;;;;;;;12.07;9.60;;;;;;;;;;4995500;28;20014;-66
2023/06/17 02:16:07;;;;;;;11.82;9.90;;;;;;;;;;4995383;28;20034;-66
2023/06/17 02:18:34;;;;;;;15.70;10.10;;;;;;;;;;4995529;28;20019;-65
2023/06/17 02:21:01;;;;;;;11.60;9.82;;;;;;;;;;4995337;28;20039;-66
2023/06/17 02:23:28;;;;;;;11.45;9.90;;;;;;;;;;4995200;28;20049;-66
2023/06/17 02:25:55;;;;;;;12.02;9.63;;;;;;;;;;4995300;28;20022;-66
2023/06/17 02:28:21;;;;;;;11.15;9.40;;;;;;;;;;4995569;28;20026;-66
2023/06/17 02:30:47;;;;;;;11.07;9.75;;;;;;;;;;4995275;28;20031;-66
2023/06/17 02:33:17;;;;;;;12.48;9.90;;;;;;;;;;4995068;28;20022;-65
2023/06/17 02:35:44;;;;;;;15.40;10.07;;;;;;;;;;4995151;28;20018;-66
2023/06/17 02:38:13;;;;;;;11.65;9.82;;;;;;;;;;4995146;28;20030;-66
2023/06/17 02:40:39;;;;;;;11.98;9.75;;;;;;;;;;4995177;28;20471;-66
2023/06/17 02:43:07;;;;;;;11.38;10.20;;;;;;;;;;4995117;28;20026;-66
2023/06/17 02:45:33;;;;;;;14.23;9.85;;;;;;;;;;4994990;28;20026;-66
2023/06/17 02:48:00;;;;;;;11.23;9.98;;;;;;;;;;4994758;28;20029;-66
2023/06/17 02:50:26;;;;;;;12.88;10.88;;;;;;;;;;4995327;28;20034;-66
2023/06/17 02:52:55;;;;;;;11.25;10.05;;;;;;;;;;4994580;28;20426;-66
2023/06/17 02:55:22;;;;;;;11.82;10.27;;;;;;;;;;4994636;28;20380;-66
2023/06/17 02:57:49;;;;;;;14.25;10.50;;;;;;;;;;4994581;28;20475;-66
2023/06/17 03:00:15;;;;;;;14.27;10.55;;;;;;;;;;4994351;28;20034;-65
2023/06/17 03:02:41;;;;;;;12.10;10.70;;;;;;;;;;4994259;28;20635;-66
2023/06/17 03:05:09;;;;;;;11.80;10.55;;;;;;;;;;4994360;28;20026;-66
2023/06/17 03:07:36;;;;;;;12.50;9.88;;;;;;;;;;4994651;28;20041;-65
2023/06/17 03:10:02;;;;;;;12.45;10.45;;;;;;;;;;4994307;28;20399;-65
2023/06/17 03:12:29;;;;;;;10.55;9.45;;;;;;;;;;4994481;28;20030;-65
2023/06/17 03:14:57;;;;;;;12.70;10.13;;;;;;;;;;4994392;28;20507;-67
2023/06/17 03:17:27;;;;;;;20.23;10.32;;;;;;;;;;4993845;28;20033;-65
2023/06/17 03:19:53;;;;;;;12.67;10.27;;;;;;;;;;4994168;28;20552;-66
2023/06/17 03:22:20;;;;;;;12.85;10.30;;;;;;;;;;4992570;28;20484;-65
2023/06/17 03:24:46;;;;;;;13.63;10.18;;;;;;;;;;4994094;28;20042;-66
2023/06/17 03:27:12;;;;;;;14.15;10.25;;;;;;;;;;4994023;28;20090;-65
2023/06/17 03:29:39;;;;;;;12.55;10.13;;;;;;;;;;4994019;28;20026;-65
2023/06/17 03:32:06;;;;;;;14.55;10.07;;;;;;;;;;4992581;28;20036;-66
2023/06/17 03:34:33;;;;;;;11.38;10.10;;;;;;;;;;4993982;28;20027;-66
2023/06/17 03:36:59;;;;;;;12.25;9.57;;;;;;;;;;4993890;28;20028;-65
2023/06/17 03:39:26;;;;;;;13.65;10.30;;;;;;;;;;4994028;28;20026;-65
2023/06/17 03:41:52;;;;;;;11.13;9.88;;;;;;;;;;4993652;28;20042;-66
2023/06/17 03:44:18;;;;;;;14.05;9.90;;;;;;;;;;4993689;28;20034;-65
2023/06/17 03:46:45;;;;;;;13.13;10.50;;;;;;;;;;4993158;28;20507;-66
2023/06/17 03:49:11;;;;;;;11.55;10.23;;;;;;;;;;4993724;28;20023;-66
2023/06/17 03:51:38;;;;;;;13.05;10.18;;;;;;;;;;4993871;28;20050;-66
2023/06/17 03:54:04;;;;;;;11.57;10.38;;;;;;;;;;4993412;28;20031;-66
2023/06/17 03:56:30;;;;;;;14.05;11.05;;;;;;;;;;4993896;28;20029;-66
2023/06/17 03:58:57;;;;;;;13.35;10.57;;;;;;;;;;4993499;28;20022;-66
2023/06/17 04:01:23;;;;;;;13.13;10.60;;;;;;;;;;4993508;28;20042;-66
2023/06/17 04:03:51;;;;;;;19.38;10.35;;;;;;;;;;4992384;28;20033;-66
2023/06/17 04:06:17;;;;;;;11.32;10.00;;;;;;;;;;4993708;28;20032;-66
2023/06/17 04:08:43;;;;;;;11.88;10.30;;;;;;;;;;4993311;28;20027;-65
2023/06/17 04:11:10;;;;;;;15.85;10.32;;;;;;;;;;4993138;28;20429;-66
2023/06/17 04:13:36;;;;;;;15.10;10.45;;;;;;;;;;4993519;28;20023;-65
2023/06/17 04:16:02;;;;;;;12.63;10.32;;;;;;;;;;4992716;28;20026;-66
2023/06/17 04:18:29;;;;;;;12.55;9.38;;;;;;;;;;4993081;28;20434;-66
2023/06/17 04:20:56;;;;;;;12.52;9.35;;;;;;;;;;4992992;28;20475;-66
2023/06/17 04:23:24;;;;;;;14.77;10.20;;;;;;;;;;4992982;28;20038;-65
2023/06/17 04:25:50;;;;;;;15.30;9.98;;;;;;;;;;4992852;28;20376;-66
2023/06/17 04:28:17;;;;;;;13.93;10.18;;;;;;;;;;4993044;28;20027;-65
2023/06/17 04:30:47;;;;;;;12.25;10.38;;;;;;;;;;4992602;28;20018;-66
2023/06/17 04:33:14;;;;;;;13.18;10.35;;;;;;;;;;4992474;28;20042;-65
2023/06/17 04:35:44;;;;;;;13.75;9.60;;;;;;;;;;4992910;28;20497;-65
2023/06/17 04:38:11;;;;;;;10.60;9.50;;;;;;;;;;4992884;28;20033;-66
2023/06/17 04:40:37;;;;;;;12.23;9.88;;;;;;;;;;4991513;28;20113;-66
2023/06/17 04:43:04;;;;;;;12.10;9.65;;;;;;;;;;4993112;28;20018;-66
2023/06/17 04:45:30;;;;;;;12.40;9.32;;;;;;;;;;4992328;28;20022;-65
2023/06/17 04:47:57;;;;;;;12.45;9.90;;;;;;;;;;4992746;28;20483;-66
2023/06/17 04:50:29;;;;;;;13.18;9.43;;;;;;;;;;4992880;28;20026;-66
2023/06/17 04:53:03;;;;;;;10.77;9.60;;;;;;;;;;4992736;28;20045;-66
2023/06/17 04:55:35;;;;;;;12.48;10.35;;;;;;;;;;4992487;28;20069;-65
2023/06/17 04:58:03;;;;;;;12.70;9.48;;;;;;;;;;4992714;28;20471;-66
2023/06/17 05:00:30;;;;;;;10.95;9.75;;;;;;;;;;4992211;28;20023;-66
2023/06/17 05:02:57;;;;;;;9.95;8.95;;;;;;;;;;4992852;28;20037;-65
2023/06/17 05:05:23;;;;;;;14.00;9.02;;;;;;;;;;4992468;28;20505;-65
2023/06/17 05:07:49;;;;;;;11.30;9.95;;;;;;;;;;4991400;28;20026;-66
2023/06/17 05:10:16;;;;;;;12.85;9.68;;;;;;;;;;4992662;28;20522;-66
2023/06/17 05:12:42;;;;;;;12.07;9.30;;;;;;;;;;4992202;28;20030;-66
2023/06/17 05:15:09;;;;;;;15.55;9.27;;;;;;;;;;4992435;28;20034;-66
2023/06/17 05:17:35;;;;;;;14.82;9.27;;;;;;;;;;4993079;28;20023;-66
2023/06/17 05:20:02;;;;;;;12.10;9.38;;;;;;;;;;4992489;28;20033;-65
2023/06/17 05:22:28;;;;;;;13.02;9.23;;;;;;;;;;4992438;28;20033;-66
2023/06/17 05:24:54;;;;;;;10.45;9.35;;;;;;;;;;4992337;28;20032;-65
2023/06/17 05:27:21;;;;;;;11.10;8.70;;;;;;;;;;4992233;28;20029;-66
2023/06/17 05:29:47;;;;;;;10.98;9.27;;;;;;;;;;4992469;28;20460;-65
2023/06/17 05:32:13;;;;;;;12.20;8.80;;;;;;;;;;4992587;28;20040;-66
2023/06/17 05:34:39;;;;;;;10.45;9.32;;;;;;;;;;4992259;28;20027;-66
2023/06/17 05:37:06;;;;;;;10.70;8.88;;;;;;;;;;4991390;28;20414;-66
2023/06/17 05:39:32;;;;;;;12.20;9.35;;;;;;;;;;4992298;28;20028;-66
2023/06/17 05:41:58;;;;;;;13.95;8.70;;;;;;;;;;4991828;28;20037;-66
2023/06/17 05:44:25;;;;;;;13.27;9.30;;;;;;;;;;4992677;28;20078;-66
2023/06/17 05:46:51;;;;;;;13.00;9.00;;;;;;;;;;4995892;28;20033;-66
2023/06/17 05:49:17;;;;;;;11.30;9.05;;;;;;;;;;4996170;28;20034;-66
2023/06/17 05:51:43;;;;;;;13.90;9.10;;;;;;;;;;4995899;28;20052;-66
2023/06/17 05:54:10;;;;;;;10.98;8.57;;;;;;;;;;4995825;28;20505;-65
2023/06/17 05:56:36;;;;;;;12.35;8.60;;;;;;;;;;4995298;28;20495;-66
2023/06/17 05:59:03;;;;;;;14.27;9.10;;;;;;;;;;4996022;28;20041;-65
2023/06/17 06:01:29;;;;;;;9.70;8.68;;;;;;;;;;4995550;28;20036;-66
2023/06/17 06:03:55;;;;;;;9.77;8.07;;;;;;;;;;4995545;28;20026;-65
2023/06/17 06:06:22;;;;;;;11.70;8.90;;;;;;;;;;4995624;28;20657;-66
2023/06/17 06:08:48;;;;;;;10.15;8.82;;;;;;;;;;4995824;28;20040;-66
2023/06/17 06:11:15;;;;;;;9.90;8.82;;;;;;;;;;4995061;28;20026;-66
2023/06/17 06:13:41;;;;;;;12.75;8.60;;;;;;;;;;4995711;28;20391;-66
2023/06/17 06:16:08;;;;;;;10.32;8.38;;;;;;;;;;4995439;28;20056;-66
2023/06/17 06:18:34;;;;;;;12.48;8.82;;;;;;;;;;4995496;28;20020;-66
2023/06/17 06:21:00;;;;;;;11.48;8.52;;;;;;;;;;4995413;28;20038;-66
2023/06/17 06:23:26;;;;;;;12.35;8.27;;;;;;;;;;4995099;28;20033;-66
2023/06/17 06:25:53;;;;;;;9.55;8.55;;;;;;;;;;4994693;28;20036;-66
2023/06/17 06:28:19;;;;;;;9.52;8.52;;;;;;;;;;4995284;28;20023;-66
2023/06/17 06:30:47;;;;;;;9.48;8.48;;;;;;;;;;4995109;28;20096;-66
2023/06/17 06:33:13;;;;;;;10.40;8.43;;;;;;;;;;4982961;28;20029;-66
2023/06/17 06:35:39;;;;;;;10.80;8.60;;;;;;;;;;4975442;28;20513;-66
2023/06/17 06:38:05;;;;;;;14.50;8.07;;;;;;;;;;4975751;28;20031;-66
2023/06/17 06:40:32;;;;;;;16.10;7.85;;;;;;;;;;4974975;28;20034;-66
2023/06/17 06:42:58;;;;;;;15.05;8.18;;;;;;;;;;4975567;28;20034;-65
2023/06/17 06:45:24;;;;;;;9.95;8.20;;;;;;;;;;4975632;28;20023;-66
2023/06/17 06:47:51;;;;;;;11.80;8.32;;;;;;;;;;4975441;28;20027;-66
2023/06/17 06:50:17;;;;;;;9.65;8.23;;;;;;;;;;4975048;28;20026;-65
2023/06/17 06:52:44;;;;;;;10.35;7.45;;;;;;;;;;4975056;28;20055;-66
2023/06/17 06:55:10;;;;;;;9.30;7.78;;;;;;;;;;4980238;28;20025;-66
2023/06/17 06:57:36;;;;;;;13.23;7.55;;;;;;;;;;4994080;28;20029;-66
2023/06/17 07:00:08;;;;;;;13.18;7.70;;;;;;;;;;4994644;28;20056;-66
2023/06/17 07:02:35;;;;;;;9.95;8.00;;;;;;;;;;4994560;28;20465;-66
2023/06/17 07:05:03;;;;;;;8.38;7.35;;;;;;;;;;4994493;28;20026;-66
2023/06/17 07:07:30;;;;;;;7.97;7.05;;;;;;;;;;4994534;28;20022;-66
2023/06/17 07:09:56;;;;;;;12.85;7.20;;;;;;;;;;4994035;28;20372;-65
2023/06/17 07:12:23;;;;;;;12.60;6.85;;;;;;;;;;4994381;28;20026;-65
2023/06/17 07:14:49;;;;;;;7.93;7.00;;;;;;;;;;4994090;28;20052;-66
2023/06/17 07:17:15;;;;;;;8.40;6.65;;;;;;;;;;4994117;28;20030;-66
2023/06/17 07:19:42;;;;;;;12.85;7.03;;;;;;;;;;4994271;28;20018;-66
2023/06/17 07:22:08;;;;;;;7.10;6.40;;;;;;;;;;4993976;28;20038;-66
2023/06/17 07:24:35;;;;;;;8.75;6.82;;;;;;;;;;4993646;28;20080;-66
2023/06/17 07:27:01;;;;;;;7.18;6.47;;;;;;;;;;4994142;28;20387;-66
2023/06/17 07:29:27;;;;;;;9.70;6.72;;;;;;;;;;4994341;28;20041;-66
2023/06/17 07:31:54;;;;;;;7.90;6.07;;;;;;;;;;4993866;28;20033;-66
2023/06/17 07:34:20;;;;;;;9.02;6.18;;;;;;;;;;4994203;28;20029;-66
2023/06/17 07:36:52;;;;;;;9.38;6.47;;;;;;;;;;4993791;28;20031;-66
2023/06/17 07:39:21;;;;;;;13.82;6.20;;;;;;;;;;4993409;28;20430;-66
2023/06/17 07:41:47;;;;;;;7.25;6.30;;;;;;;;;;4993847;28;20038;-67
2023/06/17 07:44:14;;;;;;;8.88;5.90;;;;;;;;;;4993655;28;20050;-66
2023/06/17 07:46:40;;;;;;;7.20;5.72;;;;;;;;;;4993592;28;20022;-66
2023/06/17 07:49:06;;;;;;;5.95;5.45;;;;;;;;;;4993468;28;20026;-66
2023/06/17 07:51:32;;;;;;;6.05;5.45;;;;;;;;;;4993640;28;20072;-66
2023/06/17 07:53:59;;;;;;;7.57;5.97;;;;;;;;;;4993175;28;20406;-67
2023/06/17 07:56:27;;;;;;;6.50;5.90;;;;;;;;;;4993494;28;20026;-67
2023/06/17 07:58:53;;;;;;;6.30;5.50;;;;;;;;;;4993532;28;20020;-67
2023/06/17 08:01:20;;;;;;;8.15;5.90;;;;;;;;;;4993388;28;20077;-67
2023/06/17 08:03:46;;;;;;;7.20;5.57;;;;;;;;;;4993385;28;20014;-66
2023/06/17 08:06:13;;;;;;;7.95;5.28;;;;;;;;;;4993646;28;20509;-66
2023/06/17 08:08:43;;;;;;;5.32;4.78;;;;;;;;;;4992061;28;20029;-65
2023/06/17 08:11:09;;;;;;;5.60;5.07;;;;;;;;;;4993237;28;20398;-65
2023/06/17 08:13:36;;;;;;;5.38;4.63;;;;;;;;;;4993161;28;20041;-64
2023/06/17 08:16:02;;;;;;;5.10;4.70;;;;;;;;;;4993509;28;20031;-65
2023/06/17 08:18:28;;;;;;;6.90;5.20;;;;;;;;;;4993122;28;20402;-66
2023/06/17 08:20:55;;;;;;;5.13;4.60;;;;;;;;;;4993250;28;20030;-65
2023/06/17 08:23:21;;;;;;;6.57;4.82;;;;;;;;;;4992869;28;20022;-65
2023/06/17 08:25:49;;;;;;;9.48;4.60;;;;;;;;;;4992903;28;20018;-65
2023/06/17 08:28:15;;;;;;;7.78;4.65;;;;;;;;;;4993494;28;20034;-65
2023/06/17 08:30:42;;;;;;;4.80;4.30;;;;;;;;;;4991739;28;20038;-65
2023/06/17 08:33:08;;;;;;;5.00;4.60;;;;;;;;;;4993335;28;20022;-65
2023/06/17 08:35:34;;;;;;;5.60;5.10;;;;;;;;;;4992488;28;20076;-65
2023/06/17 08:38:01;;;;;;;5.55;5.05;;;;;;;;;;4992835;28;20018;-65
2023/06/17 08:40:27;;;;;;;7.43;4.95;;;;;;;;;;4992794;28;20030;-65
2023/06/17 08:43:01;;;;;;;6.10;4.53;;;;;;;;;;4992760;28;20061;-65
2023/06/17 08:45:28;;;;;;;5.53;5.00;;;;;;;;;;4992772;28;20034;-65
2023/06/17 08:47:54;;;;;;;7.22;4.72;;;;;;;;;;4992744;28;20034;-65
2023/06/17 08:50:21;;;;;;;6.88;4.70;;;;;;;;;;4992622;28;20030;-65
2023/06/17 08:52:48;;;;;;;5.25;4.72;;;;;;;;;;4992497;28;20042;-65
2023/06/17 08:55:15;;;;;;;8.88;4.60;;;;;;;;;;4992845;28;20022;-65
2023/06/17 08:57:41;;;;;;;6.15;4.55;;;;;;;;;;4992957;28;20025;-65
2023/06/17 09:00:10;;;;;;;5.57;4.25;;;;;;;;;;4992868;28;20030;-65
2023/06/17 09:02:37;;;;;;;5.25;4.75;;;;;;;;;;4992480;28;20515;-65
2023/06/17 09:05:05;;;;;;;6.22;4.63;;;;;;;;;;4992225;28;20027;-66
2023/06/17 09:07:31;;;;;;;5.43;4.93;;;;;;;;;;4992866;28;20356;-65
2023/06/17 09:10:05;;;;;;;5.75;4.22;;;;;;;;;;4992721;28;20023;-65
2023/06/17 09:12:40;;;;;;;4.82;4.40;;;;;;;;;;4992836;28;20022;-66
2023/06/17 09:15:07;;;;;;;6.85;4.60;;;;;;;;;;4991254;28;20033;-65
2023/06/17 09:17:34;;;;;;;7.53;4.40;;;;;;;;;;4992770;28;20019;-65
2023/06/17 09:20:10;;;;;;;4.50;4.10;;;;;;;;;;4993163;28;20076;-65
2023/06/17 09:22:40;;;;;;;5.15;4.32;;;;;;;;;;4996303;28;20048;-66
2023/06/17 09:25:11;;;;;;;4.97;4.47;;;;;;;;;;4996518;28;20015;-65
2023/06/17 09:27:45;;;;;;;4.95;4.53;;;;;;;;;;4996827;28;20027;-66
2023/06/17 09:30:14;;;;;;;8.50;4.80;;;;;;;;;;4996587;28;20027;-65
2023/06/17 09:32:41;;;;;;;5.18;4.03;;;;;;;;;;4996338;28;20030;-65
2023/06/17 09:35:11;;;;;;;8.13;4.53;;;;;;;;;;4995769;28;20028;-66
2023/06/17 09:37:38;;;;;;;5.80;4.10;;;;;;;;;;4996324;28;20391;-66
2023/06/17 09:40:08;;;;;;;6.20;4.40;;;;;;;;;;4996473;28;20029;-66
2023/06/17 09:42:34;;;;;;;7.30;4.40;;;;;;;;;;4995794;28;20046;-66
2023/06/17 09:45:03;;;;;;;8.88;4.32;;;;;;;;;;4995980;28;20030;-66
2023/06/17 09:47:38;;;;;;;5.15;4.25;;;;;;;;;;4995988;28;20032;-66
2023/06/17 09:50:06;;;;;;;5.75;4.18;;;;;;;;;;4995586;28;20030;-66
2023/06/17 09:52:32;;;;;;;5.07;4.28;;;;;;;;;;4995625;28;20053;-65
2023/06/17 09:54:59;;;;;;;4.55;4.15;;;;;;;;;;4995754;28;20386;-66
2023/06/17 09:57:32;;;;;;;8.27;4.30;;;;;;;;;;4995724;28;20045;-66
2023/06/17 10:00:00;;;;;;;5.43;4.72;;;;;;;;;;4995846;28;20014;-65
2023/06/17 10:02:27;;;;;;;8.30;4.28;;;;;;;;;;4995740;28;20037;-66
2023/06/17 10:04:54;;;;;;;5.10;4.25;;;;;;;;;;4995500;28;20023;-66
2023/06/17 10:07:25;;;;;;;7.13;5.15;;;;;;;;;;4996038;28;20030;-66
2023/06/17 10:09:52;;;;;;;4.82;4.10;;;;;;;;;;4995777;28;20499;-66
2023/06/17 10:12:19;;;;;;;7.97;4.10;;;;;;;;;;4995712;28;20034;-66
2023/06/17 10:14:47;;;;;;;5.30;4.45;;;;;;;;;;4995689;28;20029;-66
2023/06/17 10:17:13;;;;;;;5.38;4.07;;;;;;;;;;4995001;28;20034;-65
2023/06/17 10:19:41;;;;;;;6.45;4.20;;;;;;;;;;4994325;28;20030;-66
2023/06/17 10:22:12;;;;;;;5.20;4.53;;;;;;;;;;4995295;28;20042;-66
2023/06/17 10:24:39;;;;;;;4.63;4.13;;;;;;;;;;4995550;28;20027;-65
2023/06/17 10:27:06;;;;;;;4.20;3.80;;;;;;;;;;4995274;28;20026;-66
2023/06/17 10:29:33;;;;;;;6.40;4.03;;;;;;;;;;4995077;28;20019;-66
2023/06/17 10:32:25;;;;;;;6.00;4.07;;;;;;;;;;4993401;28;20028;-66
2023/06/17 10:35:11;;;;;;;4.40;3.53;;;;;;;;;;4995294;28;20030;-66
2023/06/17 10:37:41;;;;;;;5.25;3.88;;;;;;;;;;4994857;28;20091;-66
2023/06/17 10:40:20;;;;;;;7.50;3.80;;;;;;;;;;4994922;28;20025;-66
2023/06/17 10:42:46;;;;;;;;;;;;;;;;;;4995211;28;20041;-66
2023/06/17 10:45:14;;;;;;;6.75;3.70;;;;;;;;;;4994825;28;19910;-66
2023/06/17 10:47:40;;;;;;;4.10;3.35;;;;;;;;;;4994594;28;20031;-66
2023/06/17 10:50:07;;;;;;;4.18;3.78;;;;;;;;;;4994946;28;20032;-66
2023/06/17 10:52:33;;;;;;;3.67;3.38;;;;;;;;;;4994677;28;20060;-66
2023/06/17 10:54:59;;;;;;;4.75;3.72;;;;;;;;;;4994818;28;20092;-66
2023/06/17 10:57:32;;;;;;;6.05;3.42;;;;;;;;;;4994587;28;20027;-66
2023/06/17 11:00:08;;;;;;;6.10;3.90;;;;;;;;;;4994549;28;20022;-66
2023/06/17 11:02:35;;;;;;;5.25;3.75;;;;;;;;;;4994291;28;20036;-65
2023/06/17 11:05:01;;;;;;;6.93;3.95;;;;;;;;;;4994522;28;20030;-66
2023/06/17 11:07:28;;;;;;;6.82;3.75;;;;;;;;;;4994453;28;20034;-65
2023/06/17 11:09:54;;;;;;;4.45;3.88;;;;;;;;;;4993132;28;20390;-66
2023/06/17 11:12:21;;;;;;;4.82;3.92;;;;;;;;;;4994691;28;20081;-65
2023/06/17 11:14:47;;;;;;;3.90;3.22;;;;;;;;;;4994199;28;20030;-66
2023/06/17 11:17:14;;;;;;;9.15;3.60;;;;;;;;;;4993892;28;20033;-66
2023/06/17 11:19:40;;;;;;;8.20;3.42;;;;;;;;;;4994575;28;20026;-65
2023/06/17 11:22:07;;;;;;;3.95;3.65;;;;;;;;;;4994140;28;20049;-66
2023/06/17 11:24:37;;;;;;;4.40;3.53;;;;;;;;;;4993888;28;20035;-66
2023/06/17 11:27:10;;;;;;;4.32;3.67;;;;;;;;;;4994395;28;20406;-66
2023/06/17 11:29:40;;;;;;;4.97;3.53;;;;;;;;;;4993750;28;20019;-66
2023/06/17 11:32:08;;;;;;;3.72;3.42;;;;;;;;;;4994492;28;20030;-66
2023/06/17 11:34:34;;;;;;;5.65;3.72;;;;;;;;;;4993900;28;20031;-66
2023/06/17 11:37:02;;;;;;;4.38;3.70;;;;;;;;;;4994007;28;20022;-66
2023/06/17 11:39:30;;;;;;;4.13;3.70;;;;;;;;;;4993815;28;20026;-66
2023/06/17 11:42:03;;;;;;;4.93;3.90;;;;;;;;;;4993819;28;20034;-66
2023/06/17 11:44:31;;;;;;;4.40;3.70;;;;;;;;;;4993383;28;20032;-66
2023/06/17 11:47:02;;;;;;;5.50;3.60;;;;;;;;;;4993742;28;20037;-66
2023/06/17 11:49:29;;;;;;;3.80;3.50;;;;;;;;;;4993487;28;20030;-66
2023/06/17 11:51:59;;;;;;;6.13;3.55;;;;;;;;;;4993532;28;20050;-66
2023/06/17 11:54:26;;;;;;;4.18;3.75;;;;;;;;;;4993467;28;20032;-66
2023/06/17 11:56:55;;;;;;;4.00;3.70;;;;;;;;;;4993794;28;20418;-65
2023/06/17 11:59:21;;;;;;;5.30;3.90;;;;;;;;;;4993199;28;20479;-65
2023/06/17 12:01:47;;;;;;;4.28;3.78;;;;;;;;;;4993493;28;20044;-66
2023/06/17 12:04:14;;;;;;;4.13;3.53;;;;;;;;;;4993383;28;20042;-66
2023/06/17 12:06:42;;;;;;;4.78;3.67;;;;;;;;;;4993477;28;20037;-66
2023/06/17 12:09:10;;;;;;;4.40;3.75;;;;;;;;;;4993345;28;20023;-66
2023/06/17 12:11:40;;;;;;;3.78;3.33;;;;;;;;;;4993355;28;20029;-66
2023/06/17 12:14:07;;;;;;;4.68;3.40;;;;;;;;;;4993348;28;20030;-65
2023/06/17 12:16:34;;;;;;;4.13;3.63;;;;;;;;;;4993310;28;20030;-65
2023/06/17 12:19:01;;;;;;;5.25;3.70;;;;;;;;;;4993276;28;20027;-66
2023/06/17 12:21:28;;;;;;;3.65;3.35;;;;;;;;;;4991834;28;20046;-66
2023/06/17 12:23:55;;;;;;;3.83;3.50;;;;;;;;;;4992802;28;20045;-66
2023/06/17 12:26:25;;;;;;;14.27;12.93;;;;;;;;;;4991975;28;20032;-65
2023/06/17 12:28:51;;;;;;;5.68;5.18;;;;;;;;;;4992538;28;20031;-65
2023/06/17 12:31:18;;;;;;;4.13;3.75;;;;;;;;;;4992989;28;20030;-65
2023/06/17 12:33:48;;;;;;;6.10;4.03;;;;;;;;;;4993267;28;20034;-65
2023/06/17 12:36:14;;;;;;;4.65;3.60;;;;;;;;;;4992909;28;20030;-65
2023/06/17 12:38:41;;;;;;;3.63;3.40;;;;;;;;;;4993311;28;20027;-65
2023/06/17 12:41:08;;;;;;;7.85;3.83;;;;;;;;;;4993195;28;20026;-65
2023/06/17 12:43:35;;;;;;;4.38;3.70;;;;;;;;;;4992364;28;20030;-66
2023/06/17 12:46:01;;;;;;;4.93;3.78;;;;;;;;;;4992830;28;20025;-65
2023/06/17 12:48:28;;;;;;;4.05;3.72;;;;;;;;;;4992933;28;20038;-65
2023/06/17 12:50:55;;;;;;;5.80;3.80;;;;;;;;;;4992487;28;20026;-65
2023/06/17 12:53:21;;;;;;;5.45;4.00;;;;;;;;;;4992942;28;20045;-65
2023/06/17 12:55:48;;;;;;;6.72;3.92;;;;;;;;;;4997974;28;20048;-65
2023/06/17 12:58:15;;;;;;;4.03;3.72;;;;;;;;;;4999028;28;20018;-65
2023/06/17 13:00:42;;;;;;;5.40;3.50;;;;;;;;;;4999568;28;20446;-65
2023/06/17 13:03:08;;;;;;;4.30;4.00;;;;;;;;;;4999623;28;20037;-65
2023/06/17 13:05:35;;;;;;;4.43;3.50;;;;;;;;;;4999070;28;20026;-65
2023/06/17 13:08:01;;;;;;;4.30;3.90;;;;;;;;;;4999558;28;20026;-65
2023/06/17 13:10:28;;;;;;;4.15;3.85;;;;;;;;;;4999445;28;20023;-65
2023/06/17 13:12:55;;;;;;;4.13;3.70;;;;;;;;;;4999252;28;20034;-65
2023/06/17 13:15:21;;;;;;;4.75;3.92;;;;;;;;;;4999288;28;20022;-65
2023/06/17 13:17:47;;;;;;;5.97;4.13;;;;;;;;;;4999017;28;20589;-65
2023/06/17 13:20:14;;;;;;;6.00;4.15;;;;;;;;;;4999025;28;20025;-65
2023/06/17 13:22:40;;;;;;;5.85;4.25;;;;;;;;;;4999019;28;20038;-65
2023/06/17 13:25:06;;;;;;;5.93;4.20;;;;;;;;;;4999027;28;20022;-65
2023/06/17 13:27:33;;;;;;;4.78;4.10;;;;;;;;;;4998893;28;20029;-65
2023/06/17 13:29:59;;;;;;;4.60;4.15;;;;;;;;;;4999253;28;20033;-65
2023/06/17 13:32:26;;;;;;;4.55;4.13;;;;;;;;;;4998913;28;20068;-65
2023/06/17 13:34:53;;;;;;;4.00;3.70;;;;;;;;;;4997637;28;20029;-65
2023/06/17 13:37:19;;;;;;;5.45;4.03;;;;;;;;;;4998772;28;20483;-65
2023/06/17 13:39:46;;;;;;;4.60;4.20;;;;;;;;;;4998901;28;20025;-65
2023/06/17 13:42:12;;;;;;;4.63;4.22;;;;;;;;;;4998518;28;20042;-65
2023/06/17 13:44:39;;;;;;;6.93;4.50;;;;;;;;;;4998784;28;20489;-65
2023/06/17 13:47:06;;;;;;;4.85;4.35;;;;;;;;;;4998930;28;20031;-65
2023/06/17 13:49:33;;;;;;;6.55;4.20;;;;;;;;;;4998639;28;20022;-65
2023/06/17 13:52:00;;;;;;;5.60;4.50;;;;;;;;;;4998067;28;20051;-65
2023/06/17 13:54:27;;;;;;;7.43;3.97;;;;;;;;;;4997878;28;20030;-65
2023/06/17 13:56:54;;;;;;;4.60;4.20;;;;;;;;;;4997248;28;20041;-65
2023/06/17 13:59:21;;;;;;;5.20;4.13;;;;;;;;;;4997662;28;20435;-65
2023/06/17 14:01:47;;;;;;;4.57;4.18;;;;;;;;;;4997529;28;20034;-65
2023/06/17 14:04:14;;;;;;;4.53;4.13;;;;;;;;;;4997541;28;20037;-65
2023/06/17 14:06:41;;;;;;;4.40;4.00;;;;;;;;;;4995829;28;20035;-65
2023/06/17 14:09:07;;;;;;;5.32;4.43;;;;;;;;;;4994058;28;20034;-64
2023/06/17 14:11:34;;;;;;;4.90;4.05;;;;;;;;;;4994234;28;20036;-65
2023/06/17 14:14:00;;;;;;;5.07;4.57;;;;;;;;;;4994278;28;20019;-65
2023/06/17 14:16:27;;;;;;;5.88;4.05;;;;;;;;;;4994520;28;20034;-65
2023/06/17 14:18:53;;;;;;;4.53;4.13;;;;;;;;;;4994271;28;20034;-65
2023/06/17 14:21:27;;;;;;;6.47;4.43;;;;;;;;;;4994321;28;20426;-65
2023/06/17 14:23:53;;;;;;;4.90;4.00;;;;;;;;;;4993837;28;20026;-65
2023/06/17 14:26:20;;;;;;;6.82;3.97;;;;;;;;;;4994424;28;20476;-65
2023/06/17 14:28:46;;;;;;;6.20;4.30;;;;;;;;;;4994416;28;20033;-65
2023/06/17 14:31:12;;;;;;;5.93;4.50;;;;;;;;;;4994096;28;20030;-65
2023/06/17 14:33:38;;;;;;;6.53;4.75;;;;;;;;;;4994375;28;20073;-65
2023/06/17 14:36:05;;;;;;;5.18;4.57;;;;;;;;;;4994268;28;20038;-65